createdAt,value
2023-03-27T00:00:37.376Z,9.10
2023-03-27T00:05:40.790Z,11.80
2023-03-27T00:10:42.537Z,10.60
2023-03-27T00:15:44.713Z,11.80
2023-03-27T00:20:46.644Z,10.40
2023-03-27T00:25:49.957Z,9.50
2023-03-27T00:30:51.706Z,11.90
2023-03-27T00:35:54.240Z,14.70
2023-03-27T00:40:56.589Z,14.50
2023-03-27T00:46:02.365Z,16.00
2023-03-27T00:51:05.789Z,15.60
2023-03-27T00:56:08.880Z,15.80
2023-03-27T01:01:14.386Z,17.00
2023-03-27T01:06:17.252Z,18.10
2023-03-27T01:11:46.549Z,15.80
2023-03-27T01:16:54.401Z,11.40
2023-03-27T01:22:22.077Z,22.90
2023-03-27T01:27:48.788Z,17.80
2023-03-27T01:33:21.577Z,12.50
2023-03-27T01:38:35.650Z,13.50
2023-03-27T01:44:05.070Z,12.90
2023-03-27T01:49:20.259Z,13.50
2023-03-27T01:54:31.034Z,10.00
2023-03-27T01:59:37.578Z,10.30
2023-03-27T02:04:59.853Z,7.70
2023-03-27T02:10:08.290Z,9.90
2023-03-27T02:15:23.535Z,8.30
2023-03-27T02:20:27.683Z,8.40
2023-03-27T02:25:45.598Z,8.30
2023-03-27T02:31:32.480Z,11.40
2023-03-27T02:36:45.194Z,8.30
2023-03-27T02:42:09.482Z,11.10
2023-03-27T02:47:30.825Z,12.80
2023-03-27T02:52:43.544Z,12.80
2023-03-27T02:57:52.356Z,10.80
2023-03-27T03:03:27.909Z,11.80
2023-03-27T03:08:38.896Z,11.20
2023-03-27T03:13:43.292Z,13.20
2023-03-27T03:18:44.986Z,8.40
2023-03-27T03:23:57.896Z,8.20
2023-03-27T03:29:02.054Z,8.70
2023-03-27T03:34:07.118Z,11.40
2023-03-27T03:39:09.491Z,12.40
2023-03-27T03:44:11.310Z,9.70
2023-03-27T03:49:13.568Z,10.90
2023-03-27T03:54:15.857Z,6.10
2023-03-27T03:59:18.238Z,6.70
2023-03-27T04:04:48.061Z,6.40
2023-03-27T04:09:51.653Z,6.00
2023-03-27T04:15:00.662Z,7.00
2023-03-27T04:20:22.004Z,4.80
2023-03-27T04:25:24.401Z,5.20
2023-03-27T04:30:27.771Z,5.90
2023-03-27T04:36:06.428Z,6.80
2023-03-27T04:41:21.534Z,8.50
2023-03-27T04:46:23.749Z,8.80
2023-03-27T04:51:32.519Z,8.10
2023-03-27T04:56:37.641Z,6.50
2023-03-27T05:01:40.355Z,9.20
2023-03-27T05:06:55.295Z,9.40
2023-03-27T05:11:57.414Z,9.40
2023-03-27T05:17:00.870Z,7.00
2023-03-27T05:22:03.183Z,10.60
2023-03-27T05:27:05.447Z,4.90
2023-03-27T05:32:08.160Z,8.10
2023-03-27T05:37:16.536Z,9.40
2023-03-27T05:42:50.525Z,8.40
2023-03-27T05:47:54.040Z,10.00
2023-03-27T05:53:01.542Z,9.90
2023-03-27T05:58:13.348Z,11.30
2023-03-27T06:03:15.561Z,7.10
2023-03-27T06:08:32.364Z,11.50
2023-03-27T06:13:34.150Z,7.50
2023-03-27T06:18:41.350Z,10.00
2023-03-27T06:23:44.545Z,9.30
2023-03-27T06:28:47.802Z,9.20
2023-03-27T06:33:50.295Z,7.60
2023-03-27T06:39:05.675Z,8.90
2023-03-27T06:44:08.172Z,9.50
2023-03-27T06:49:48.767Z,9.90
2023-03-27T06:54:55.713Z,9.80
2023-03-27T06:59:58.840Z,8.90
2023-03-27T07:05:16.735Z,6.50
2023-03-27T07:10:18.877Z,10.50
2023-03-27T07:15:22.075Z,11.40
2023-03-27T07:20:25.367Z,12.40
2023-03-27T07:25:37.015Z,11.70
2023-03-27T07:30:41.399Z,11.80
2023-03-27T07:35:47.473Z,10.90
2023-03-27T07:41:09.340Z,9.90
2023-03-27T07:46:34.394Z,8.20
2023-03-27T07:51:38.767Z,9.40
2023-03-27T07:56:41.341Z,7.10
2023-03-27T08:02:06.414Z,10.00
2023-03-27T08:07:11.714Z,12.50
2023-03-27T08:12:15.745Z,12.70
2023-03-27T08:17:22.321Z,14.80
2023-03-27T08:22:24.726Z,12.40
2023-03-27T08:28:04.826Z,7.40
2023-03-27T08:33:09.899Z,7.30
2023-03-27T08:38:23.648Z,5.80
2023-03-27T08:43:44.116Z,5.50
2023-03-27T08:49:12.566Z,5.40
2023-03-27T08:54:22.292Z,6.20
2023-03-27T08:59:28.235Z,9.20
2023-03-27T09:04:53.749Z,10.40
2023-03-27T09:10:15.358Z,6.90
2023-03-27T09:15:37.124Z,3.80
2023-03-27T09:20:44.820Z,4.40
2023-03-27T09:25:51.531Z,5.00
2023-03-27T09:31:27.824Z,4.20
2023-03-27T09:36:30.678Z,2.80
2023-03-27T09:41:48.184Z,2.50
2023-03-27T09:46:58.084Z,2.50
2023-03-27T09:52:02.557Z,3.80
2023-03-27T09:57:33.808Z,2.50
2023-03-27T10:02:37.068Z,3.60
2023-03-27T10:07:41.587Z,2.70
2023-03-27T10:13:01.212Z,2.20
2023-03-27T10:18:28.293Z,2.90
2023-03-27T10:24:06.996Z,3.20
2023-03-27T10:29:37.657Z,3.00
2023-03-27T10:34:53.377Z,2.90
2023-03-27T10:40:30.894Z,2.70
2023-03-27T10:45:47.137Z,3.60
2023-03-27T10:50:54.293Z,4.00
2023-03-27T10:56:42.699Z,3.40
2023-03-27T11:01:53.804Z,3.90
2023-03-27T11:12:10.307Z,4.50
2023-03-27T11:17:21.028Z,4.50
2023-03-27T11:22:42.113Z,4.80
2023-03-27T11:27:58.476Z,3.20
2023-03-27T11:33:32.274Z,4.50
2023-03-27T11:38:46.347Z,3.50
2023-03-27T11:43:48.630Z,3.00
2023-03-27T11:49:36.231Z,3.40
2023-03-27T11:55:10.150Z,3.40
2023-03-27T12:00:19.292Z,3.10
2023-03-27T12:05:37.384Z,2.30
2023-03-27T12:10:43.119Z,2.40
2023-03-27T12:16:18.458Z,2.70
2023-03-27T12:21:54.133Z,2.60
2023-03-27T12:27:12.141Z,3.10
2023-03-27T12:32:40.787Z,3.50
2023-03-27T12:37:56.008Z,3.50
2023-03-27T12:43:33.711Z,2.20
2023-03-27T12:49:00.928Z,2.60
2023-03-27T12:54:29.239Z,2.40
2023-03-27T12:59:59.103Z,2.80
2023-03-27T13:05:26.873Z,2.50
2023-03-27T13:10:35.324Z,5.30
2023-03-27T13:15:43.354Z,5.30
2023-03-27T13:20:46.400Z,4.30
2023-03-27T13:26:03.923Z,5.00
2023-03-27T13:31:11.697Z,2.80
2023-03-27T13:36:29.986Z,2.20
2023-03-27T13:41:38.114Z,2.50
2023-03-27T13:47:13.002Z,3.40
2023-03-27T13:52:42.305Z,3.10
2023-03-27T13:57:56.725Z,3.80
2023-03-27T14:03:15.334Z,2.50
2023-03-27T14:08:37.937Z,2.10
2023-03-27T14:14:14.843Z,2.90
2023-03-27T14:19:48.729Z,2.70
2023-03-27T14:25:00.304Z,2.20
2023-03-27T14:30:20.358Z,1.70
2023-03-27T14:35:38.030Z,3.10
2023-03-27T14:40:50.311Z,2.00
2023-03-27T14:45:57.284Z,3.50
2023-03-27T14:51:03.079Z,3.20
2023-03-27T14:56:23.394Z,3.70
2023-03-27T15:01:32.171Z,2.80
2023-03-27T15:06:36.783Z,4.30
2023-03-27T15:11:41.138Z,5.80
2023-03-27T15:16:58.135Z,3.30
2023-03-27T15:22:07.577Z,3.10
2023-03-27T15:27:20.063Z,4.30
2023-03-27T15:32:22.416Z,3.50
2023-03-27T15:37:28.549Z,3.50
2023-03-27T15:42:51.064Z,5.90
2023-03-27T15:48:02.937Z,4.40
2023-03-27T15:53:04.800Z,4.20
2023-03-27T15:58:13.604Z,5.40
2023-03-27T16:03:21.380Z,3.80
2023-03-27T16:08:23.546Z,3.40
2023-03-27T16:13:52.822Z,3.80
2023-03-27T16:18:58.333Z,3.20
2023-03-27T16:24:00.191Z,3.00
2023-03-27T16:29:04.512Z,2.60
2023-03-27T16:34:11.693Z,2.10
2023-03-27T16:39:24.851Z,2.40
2023-03-27T16:44:26.557Z,4.30
2023-03-27T16:49:28.198Z,5.40
2023-03-27T16:54:29.939Z,3.60
2023-03-27T16:59:31.636Z,1.70
2023-03-27T17:04:33.477Z,3.30
2023-03-27T17:09:35.846Z,3.10
2023-03-27T17:14:37.677Z,2.60
2023-03-27T17:19:39.377Z,3.20
2023-03-27T17:24:55.340Z,2.70
2023-03-27T17:29:58.790Z,2.10
2023-03-27T17:35:00.524Z,2.40
2023-03-27T17:40:06.001Z,2.00
2023-03-27T17:45:07.930Z,4.20
2023-03-27T17:50:10.423Z,3.80
2023-03-27T17:55:12.101Z,3.80
2023-03-27T18:00:14.713Z,3.00
2023-03-27T18:05:17.264Z,5.20
2023-03-27T18:10:20.389Z,3.30
2023-03-27T18:15:22.091Z,4.40
2023-03-27T18:20:24.039Z,5.50
2023-03-27T18:25:25.743Z,3.60
2023-03-27T18:30:27.649Z,4.60
2023-03-27T18:35:29.749Z,3.20
2023-03-27T18:40:33.468Z,4.90
2023-03-27T18:45:38.256Z,6.00
2023-03-27T18:55:41.569Z,5.50
2023-03-27T19:00:43.725Z,4.00
2023-03-27T19:05:54.899Z,4.10
2023-03-27T19:10:59.583Z,5.10
2023-03-27T19:16:21.843Z,4.80
2023-03-27T19:21:26.849Z,4.30
2023-03-27T19:26:49.041Z,5.50
2023-03-27T19:31:51.952Z,5.20
2023-03-27T19:36:55.155Z,4.70
2023-03-27T19:41:58.891Z,4.20
2023-03-27T19:47:03.700Z,5.40
2023-03-27T19:57:09.064Z,3.70
2023-03-27T20:02:14.672Z,3.50
2023-03-27T20:07:16.547Z,4.90
2023-03-27T20:12:19.830Z,6.30
2023-03-27T20:17:27.947Z,8.70
2023-03-27T20:22:31.124Z,6.80
2023-03-27T20:27:32.961Z,4.90
2023-03-27T20:32:35.261Z,3.60
2023-03-27T20:37:39.601Z,4.80
2023-03-27T20:42:50.382Z,2.60
2023-03-27T20:47:52.879Z,6.10
2023-03-27T20:52:57.940Z,8.80
2023-03-27T21:03:01.759Z,5.90
2023-03-27T21:08:07.421Z,6.20
2023-03-27T21:13:15.318Z,4.90
2023-03-27T21:18:17.452Z,4.70
2023-03-27T21:23:22.006Z,5.10
2023-03-27T21:28:23.669Z,4.60
2023-03-27T21:33:25.660Z,3.60
2023-03-27T21:38:28.245Z,5.20
2023-03-27T21:43:31.426Z,3.30
2023-03-27T21:48:33.623Z,9.30
2023-03-27T21:53:37.059Z,6.60
2023-03-27T21:58:38.769Z,5.20
2023-03-27T22:03:40.740Z,6.00
2023-03-27T22:08:43.556Z,12.50
2023-03-27T22:13:47.056Z,10.80
2023-03-27T22:18:49.192Z,10.40
2023-03-27T22:23:52.293Z,6.20
2023-03-27T22:28:54.544Z,7.30
2023-03-27T22:33:56.840Z,5.00
2023-03-27T22:38:58.947Z,6.30
2023-03-27T22:44:01.927Z,12.60
2023-03-27T22:49:03.812Z,10.00
2023-03-27T22:54:06.071Z,7.20
2023-03-27T22:59:08.894Z,7.70
2023-03-27T23:04:10.761Z,8.20
2023-03-27T23:09:13.172Z,6.70
2023-03-27T23:14:17.113Z,5.30
2023-03-27T23:19:19.002Z,5.60
2023-03-27T23:24:20.874Z,14.20
2023-03-27T23:29:22.622Z,13.20
2023-03-27T23:34:24.550Z,7.50
2023-03-27T23:39:26.428Z,9.30
2023-03-27T23:44:29.228Z,9.90
2023-03-27T23:49:32.462Z,7.70
2023-03-27T23:54:36.528Z,8.10
2023-03-27T23:59:38.619Z,7.80
